Time;durP1;ratioP1;P1;durP2;ratioP2;P2;SDS_P1;SDS_P2;PMS_P1;PMS_P2;Temp;Humidity;BMP_temperature;BMP_pressure;BME280_temperature;BME280_humidity;BME280_pressure;Samples;Min_cycle;Max_cycle;Signal;HPM_P1;HPM_P2
2022/09/08 00:00:28;;;;;;;;;3.00;2.00;;;;;19.64;82.95;100592.91;5018111;28;45343;-76
2022/09/08 00:02:54;;;;;;;;;2.67;2.67;;;;;19.63;83.11;100599.34;5018531;28;45388;-76
2022/09/08 00:05:24;;;;;;;;;2.00;2.00;;;;;19.62;83.00;100591.50;5030949;28;45485;-76
2022/09/08 00:07:53;;;;;;;;;2.00;2.00;;;;;19.62;82.69;100578.88;5018221;28;46297;-76
2022/09/08 00:10:19;;;;;;;;;1.00;1.00;;;;;19.60;82.58;100591.75;5018354;28;45294;-76
2022/09/08 00:12:47;;;;;;;;;2.00;1.00;;;;;19.48;82.69;100574.81;5024717;28;45292;-77
2022/09/08 00:15:13;;;;;;;;;2.00;2.00;;;;;19.47;82.83;100571.28;5022845;28;45473;-76
2022/09/08 00:17:40;;;;;;;;;2.00;2.00;;;;;19.45;82.58;100565.31;5029335;28;46458;-77
2022/09/08 00:20:07;;;;;;;;;1.00;1.00;;;;;19.36;82.70;100564.06;5029119;28;46025;-76
2022/09/08 00:22:33;;;;;;;;;0.00;0.00;;;;;19.35;82.98;100568.63;5019558;28;45324;-77
2022/09/08 00:24:58;;;;;;;;;1.00;1.00;;;;;19.31;82.77;100572.84;5027364;28;45875;-77
2022/09/08 00:27:24;;;;;;;;;2.00;2.00;;;;;19.42;82.58;100582.78;5033239;28;48296;-77
2022/09/08 00:29:49;;;;;;;;;2.00;2.00;;;;;19.42;82.66;100584.63;5025297;28;45159;-76
2022/09/08 00:32:15;;;;;;;;;1.00;1.00;;;;;19.48;82.90;100588.28;5023647;28;45459;-77
2022/09/08 00:34:40;;;;;;;;;2.00;2.00;;;;;19.50;82.91;100583.47;5018020;28;45341;-77
2022/09/08 00:37:05;;;;;;;;;0.33;0.33;;;;;19.56;82.71;100587.91;5018065;28;46244;-76
2022/09/08 00:39:31;;;;;;;;;2.00;1.00;;;;;19.57;83.07;100586.03;5051536;28;45335;-77
2022/09/08 00:41:56;;;;;;;;;2.00;1.00;;;;;19.57;82.92;100583.34;5028022;28;45497;-77
2022/09/08 00:44:39;;;;;;;;;2.67;1.33;;;;;19.62;82.73;100583.44;5017870;28;45308;-77
2022/09/08 00:47:29;;;;;;;;;2.00;1.00;;;;;19.64;82.76;100601.00;5018112;28;45468;-77
2022/09/08 00:50:18;;;;;;;;;2.00;2.00;;;;;19.60;82.52;100594.44;5019520;28;45549;-77
2022/09/08 00:52:52;;;;;;;;;2.00;2.00;;;;;19.71;82.86;100610.81;5026847;28;45364;-77
2022/09/08 00:55:20;;;;;;;;;2.00;2.00;;;;;19.65;82.95;100586.47;5034557;28;46455;-77
2022/09/08 00:57:45;;;;;;;;;1.67;1.67;;;;;19.72;82.76;100599.00;5027417;28;45578;-77
2022/09/08 01:00:14;;;;;;;;;1.33;1.33;;;;;19.70;82.55;100593.03;5017591;28;45605;-76
2022/09/08 01:02:40;;;;;;;;;2.67;2.00;;;;;19.73;82.65;100598.75;5017812;28;45481;-77
2022/09/08 01:05:09;;;;;;;;;2.00;2.00;;;;;19.74;82.62;100603.09;5017530;28;45279;-77
2022/09/08 01:13:38;;;;;;;;;1.00;1.00;;;;;19.79;82.63;100594.28;5017277;28;45261;-77
2022/09/08 01:16:06;;;;;;;;;2.67;2.33;;;;;19.80;82.73;100601.31;5021446;28;45326;-76
2022/09/08 01:18:33;;;;;;;;;3.00;3.00;;;;;19.73;82.69;100581.75;5023788;28;46019;-77
2022/09/08 01:21:21;;;;;;;;;3.00;1.00;;;;;19.76;82.59;100606.38;5017302;28;45337;-77
2022/09/08 01:24:09;;;;;;;;;3.00;2.00;;;;;19.74;82.52;100586.91;5017293;28;45271;-77
2022/09/08 01:26:46;;;;;;;;;3.00;1.67;;;;;19.80;82.20;100601.31;5025746;28;46115;-77
2022/09/08 01:29:14;;;;;;;;;2.00;2.00;;;;;19.80;81.89;100602.13;5019862;28;45406;-77
2022/09/08 01:31:42;;;;;;;;;3.00;2.00;;;;;19.73;82.11;100609.53;5025416;28;46087;-77
2022/09/08 01:34:09;;;;;;;;;2.00;2.00;;;;;19.69;82.00;100619.16;5017453;28;45565;-77
2022/09/08 01:36:35;;;;;;;;;2.00;2.00;;;;;19.70;82.29;100623.50;5017459;28;45313;-77
2022/09/08 01:39:00;;;;;;;;;4.00;3.67;;;;;19.72;82.30;100615.97;5046255;28;51216;-77
2022/09/08 01:41:26;;;;;;;;;2.67;2.33;;;;;19.68;81.90;100607.56;5032628;28;45397;-77
2022/09/08 01:43:51;;;;;;;;;1.33;1.33;;;;;19.60;81.98;100601.72;5017318;28;45426;-77
2022/09/08 01:46:17;;;;;;;;;1.33;1.33;;;;;19.60;82.31;100601.72;5017028;28;45302;-77
2022/09/08 01:48:42;;;;;;;;;2.00;1.00;;;;;19.60;81.96;100609.81;5017022;28;46381;-77
2022/09/08 01:51:08;;;;;;;;;2.00;2.00;;;;;19.57;82.10;100613.78;5027628;28;45666;-77
2022/09/08 01:53:34;;;;;;;;;1.00;1.00;;;;;19.58;82.01;100611.91;5018878;28;45477;-77
2022/09/08 01:56:01;;;;;;;;;0.00;0.00;;;;;19.59;81.86;100610.84;5025678;28;45400;-76
2022/09/08 01:58:27;;;;;;;;;2.00;1.00;;;;;19.47;82.03;100592.00;5020604;28;45680;-77
2022/09/08 02:00:52;;;;;;;;;1.67;1.67;;;;;19.56;82.01;100604.06;5017103;28;45289;-77
2022/09/08 02:03:18;;;;;;;;;2.00;1.00;;;;;19.51;81.96;100606.66;5029666;28;45607;-77
2022/09/08 02:05:44;;;;;;;;;1.00;1.00;;;;;19.50;81.56;100605.00;5031017;28;45349;-77
2022/09/08 02:08:10;;;;;;;;;3.00;2.00;;;;;19.46;81.77;100612.78;5027701;28;47035;-77
2022/09/08 02:10:37;;;;;;;;;2.00;2.00;;;;;19.46;82.13;100614.63;5106773;27;46647;-77
2022/09/08 02:13:04;;;;;;;;;3.00;2.00;;;;;19.49;81.68;100612.31;5015444;28;45380;-77
2022/09/08 02:15:30;;;;;;;;;1.00;1.00;;;;;19.48;81.69;100605.25;5016527;28;45511;-77
2022/09/08 02:17:57;;;;;;;;;1.67;1.67;;;;;19.45;81.39;100602.22;5034405;28;47333;-76
2022/09/08 02:20:22;;;;;;;;;1.33;1.33;;;;;19.40;81.41;100598.34;5021964;28;45261;-76
2022/09/08 02:22:48;;;;;;;;;1.00;1.00;;;;;19.45;81.54;100608.41;5018325;28;45713;-77
2022/09/08 02:25:13;;;;;;;;;2.33;2.33;;;;;19.41;81.72;100599.19;5016836;28;46146;-77
2022/09/08 02:27:39;;;;;;;;;1.00;1.00;;;;;19.42;81.32;100617.81;5016513;28;45534;-76
2022/09/08 02:30:06;;;;;;;;;3.00;2.00;;;;;19.39;81.76;100601.28;5022600;28;45992;-77
2022/09/08 02:32:31;;;;;;;;;1.00;1.00;;;;;19.42;81.72;100622.38;5016603;28;45554;-77
2022/09/08 02:34:57;;;;;;;;;2.00;2.00;;;;;19.36;81.65;100618.75;5016586;28;47280;-77
2022/09/08 02:37:22;;;;;;;;;1.00;1.00;;;;;19.39;82.24;100614.75;5016412;28;46497;-77
2022/09/08 02:39:47;;;;;;;;;2.00;2.00;;;;;19.38;81.84;100611.25;5016410;28;45396;-77
2022/09/08 02:42:13;;;;;;;;;1.00;0.00;;;;;19.37;81.83;100609.63;5016809;28;45164;-77
2022/09/08 02:44:38;;;;;;;;;1.33;1.33;;;;;19.37;81.94;100608.78;5016213;28;45285;-77
2022/09/08 02:47:05;;;;;;;;;2.67;2.67;;;;;19.30;81.97;100604.34;5016348;28;45477;-77
2022/09/08 02:49:31;;;;;;;;;3.33;2.00;;;;;19.34;82.02;100607.41;5014902;28;45348;-77
2022/09/08 02:51:57;;;;;;;;;1.00;1.00;;;;;19.31;82.11;100602.47;5030151;28;45527;-77
2022/09/08 02:54:22;;;;;;;;;5.00;2.33;;;;;19.23;81.59;100589.38;5016443;28;45337;-77
2022/09/08 02:56:47;;;;;;;;;3.00;2.67;;;;;19.24;81.49;100594.50;5027871;28;46868;-77
2022/09/08 02:59:13;;;;;;;;;1.00;1.00;;;;;19.20;81.58;100587.13;5016266;28;45356;-76
2022/09/08 03:01:38;;;;;;;;;1.00;1.00;;;;;19.18;82.03;100585.50;5016255;28;45262;-76
2022/09/08 03:04:05;;;;;;;;;1.33;1.33;;;;;19.15;82.02;100574.38;5016119;28;45318;-76
2022/09/08 03:06:31;;;;;;;;;0.33;0.33;;;;;19.14;82.03;100575.44;5016129;28;45613;-76
2022/09/08 03:08:56;;;;;;;;;1.67;1.67;;;;;19.09;82.15;100572.66;5015833;28;45368;-76
2022/09/08 03:11:22;;;;;;;;;1.33;1.33;;;;;19.07;82.11;100567.47;5016139;28;45475;-77
2022/09/08 03:13:48;;;;;;;;;3.00;2.00;;;;;19.04;82.07;100576.00;5028653;28;47006;-76
2022/09/08 03:16:13;;;;;;;;;2.00;2.00;;;;;18.99;81.75;100555.16;5019638;28;46331;-76
2022/09/08 03:18:38;;;;;;;;;1.33;1.00;;;;;19.00;81.85;100559.50;5021294;28;45303;-76
2022/09/08 03:21:08;;;;;;;;;3.33;3.33;;;;;18.97;81.60;100561.84;5017664;28;45360;-76
2022/09/08 03:23:33;;;;;;;;;2.33;2.33;;;;;18.92;81.65;100562.56;5015970;28;45387;-76
2022/09/08 03:26:12;;;;;;;;;5.00;5.00;;;;;18.90;81.90;100554.72;5029628;28;46035;-76
2022/09/08 03:28:38;;;;;;;;;2.00;2.00;;;;;18.85;81.88;100541.13;5015804;28;45373;-76
2022/09/08 03:31:18;;;;;;;;;3.00;3.00;;;;;18.83;81.45;100537.84;5015695;28;45377;-75
2022/09/08 03:33:44;;;;;;;;;3.00;3.00;;;;;18.74;81.57;100525.81;5015461;28;45490;-76
2022/09/08 03:36:12;;;;;;;;;4.33;4.33;;;;;18.78;81.49;100537.72;5017936;28;45472;-76
2022/09/08 03:38:38;;;;;;;;;3.67;3.67;;;;;18.75;81.71;100547.09;5028250;28;45360;-76
2022/09/08 03:41:09;;;;;;;;;2.33;2.33;;;;;18.71;81.84;100543.25;5021650;28;45259;-76
2022/09/08 03:43:35;;;;;;;;;3.00;2.33;;;;;18.65;82.09;100531.53;5018674;28;45332;-76
2022/09/08 03:46:06;;;;;;;;;5.00;5.00;;;;;18.70;81.62;100535.41;5018407;28;45566;-76
2022/09/08 03:48:33;;;;;;;;;3.67;3.00;;;;;18.64;81.33;100534.44;5018597;28;45330;-76
2022/09/08 03:51:07;;;;;;;;;3.33;3.33;;;;;18.63;82.18;100540.88;5029251;28;45710;-76
2022/09/08 03:53:33;;;;;;;;;3.33;3.33;;;;;18.59;81.83;100537.84;5020496;28;45330;-75
2022/09/08 03:55:58;;;;;;;;;5.00;5.00;;;;;18.58;82.03;100546.97;5018493;28;45411;-76
2022/09/08 03:58:23;;;;;;;;;5.00;4.67;;;;;18.55;81.67;100542.88;5018353;28;45364;-76
2022/09/08 04:00:49;;;;;;;;;3.00;2.67;;;;;18.52;81.79;100542.50;5024646;28;49216;-76
2022/09/08 04:03:15;;;;;;;;;5.67;5.67;;;;;18.46;81.75;100546.16;5024695;28;45436;-76
2022/09/08 04:05:40;;;;;;;;;6.00;6.00;;;;;18.50;82.37;100550.00;5023765;28;45380;-77
2022/09/08 04:08:05;;;;;;;;;5.00;4.33;;;;;18.48;82.34;100558.31;5026672;28;45339;-76
2022/09/08 04:10:31;;;;;;;;;4.00;4.00;;;;;18.49;82.71;100561.81;5034515;28;45355;-76
2022/09/08 04:12:56;;;;;;;;;5.33;5.33;;;;;18.46;83.04;100548.84;5036626;28;45975;-76
2022/09/08 04:15:21;;;;;;;;;5.00;5.00;;;;;18.49;83.04;100551.03;5022714;28;46499;-76
2022/09/08 04:17:47;;;;;;;;;8.00;7.00;;;;;18.47;83.33;100547.78;5031461;28;45400;-76
2022/09/08 04:20:16;;;;;;;;;5.67;4.00;;;;;18.52;83.59;100555.97;5018528;28;45294;-76
2022/09/08 04:22:41;;;;;;;;;6.00;6.00;;;;;18.59;83.12;100566.63;5017825;28;45345;-77
2022/09/08 04:25:07;;;;;;;;;7.00;6.00;;;;;18.57;83.41;100564.16;5018197;28;45328;-77
2022/09/08 04:27:32;;;;;;;;;8.00;7.00;;;;;18.52;83.93;100567.56;5017986;28;45639;-76
2022/09/08 04:29:58;;;;;;;;;6.67;6.00;;;;;18.51;84.14;100559.72;5018166;28;45329;-77
2022/09/08 04:32:24;;;;;;;;;4.33;4.00;;;;;18.58;83.93;100568.50;5017652;28;45393;-77
2022/09/08 04:34:50;;;;;;;;;5.67;5.67;;;;;18.58;83.93;100565.00;5018045;28;46460;-76
2022/09/08 04:37:15;;;;;;;;;8.00;6.00;;;;;18.61;84.24;100568.03;5017973;28;45333;-76
2022/09/08 04:39:40;;;;;;;;;6.33;6.00;;;;;18.64;84.24;100566.75;5018001;28;45421;-77
2022/09/08 04:42:06;;;;;;;;;5.00;5.00;;;;;18.65;83.98;100557.63;5016599;28;46091;-76
2022/09/08 04:44:32;;;;;;;;;5.00;5.00;;;;;18.68;83.86;100557.16;5017853;28;45716;-76
2022/09/08 04:46:57;;;;;;;;;8.67;7.67;;;;;18.70;84.26;100551.56;5025948;28;45347;-76
2022/09/08 04:49:22;;;;;;;;;6.00;6.00;;;;;18.65;84.47;100552.25;5022372;28;45354;-76
2022/09/08 04:51:50;;;;;;;;;6.67;6.33;;;;;18.68;84.19;100552.59;5030550;28;46927;-77
2022/09/08 04:54:16;;;;;;;;;7.00;4.00;;;;;18.72;84.50;100546.75;5017837;28;46466;-76
2022/09/08 04:56:41;;;;;;;;;5.33;5.33;;;;;18.70;84.25;100541.59;5017654;28;45206;-76
2022/09/08 04:59:07;;;;;;;;;5.67;4.00;;;;;18.75;84.08;100540.88;5017959;28;45636;-76
2022/09/08 05:01:35;;;;;;;;;7.00;6.00;;;;;18.72;83.95;100539.50;5017660;28;45297;-77
2022/09/08 05:04:02;;;;;;;;;5.33;4.67;;;;;18.74;83.65;100545.44;5017152;28;45365;-76
2022/09/08 05:06:29;;;;;;;;;4.67;4.00;;;;;18.75;84.11;100549.78;5017601;28;45301;-76
2022/09/08 05:08:58;;;;;;;;;5.00;5.00;;;;;18.76;84.11;100548.72;5016187;28;45280;-76
2022/09/08 05:11:26;;;;;;;;;4.00;4.00;;;;;18.77;84.78;100557.63;5017423;28;45392;-76
2022/09/08 05:13:52;;;;;;;;;7.00;4.67;;;;;18.78;84.01;100562.78;5017271;28;46112;-77
2022/09/08 05:16:23;;;;;;;;;5.00;5.00;;;;;18.80;84.28;100557.97;5022164;28;45336;-76
2022/09/08 05:18:52;;;;;;;;;5.67;4.00;;;;;18.81;84.19;100553.41;5021698;28;45397;-77
2022/09/08 05:21:19;;;;;;;;;7.00;5.00;;;;;18.82;84.50;100559.63;5017668;28;45376;-77
2022/09/08 05:23:45;;;;;;;;;7.00;5.00;;;;;18.80;84.13;100562.56;5022982;28;45422;-77
2022/09/08 05:26:13;;;;;;;;;4.33;4.00;;;;;18.79;84.55;100561.72;5021513;28;45305;-77
2022/09/08 05:28:40;;;;;;;;;6.33;6.00;;;;;18.82;84.56;100565.81;5017668;28;45405;-77
2022/09/08 05:31:06;;;;;;;;;5.00;4.33;;;;;18.86;84.52;100566.19;5017158;28;45508;-77
2022/09/08 05:33:32;;;;;;;;;6.00;6.00;;;;;18.82;84.29;100565.81;5022665;28;47313;-76
2022/09/08 05:35:58;;;;;;;;;4.00;4.00;;;;;18.83;84.50;100566.66;5024024;28;45393;-77
2022/09/08 05:38:24;;;;;;;;;4.67;4.67;;;;;18.77;84.15;100560.31;5031982;28;45458;-77
2022/09/08 05:40:49;;;;;;;;;6.00;6.00;;;;;18.79;84.22;100569.81;5017193;28;45575;-76
2022/09/08 05:43:16;;;;;;;;;5.00;5.00;;;;;18.79;84.41;100575.19;5017118;28;45209;-77
2022/09/08 05:45:48;;;;;;;;;5.00;5.00;;;;;18.87;84.29;100570.50;5016988;28;45697;-77
2022/09/08 05:48:14;;;;;;;;;6.67;6.00;;;;;18.79;84.64;100569.81;5023129;28;45367;-77
2022/09/08 05:50:44;;;;;;;;;6.33;4.67;;;;;18.85;84.38;100565.34;5031826;28;45177;-77
2022/09/08 05:53:09;;;;;;;;;4.33;4.33;;;;;18.88;84.31;100567.56;5021980;28;45559;-78
2022/09/08 05:55:35;;;;;;;;;3.00;3.00;;;;;18.84;83.56;100566.41;5015897;28;45552;-77
2022/09/08 05:58:00;;;;;;;;;3.33;3.00;;;;;18.84;84.42;100571.78;5025285;28;45722;-77
2022/09/08 06:00:25;;;;;;;;;4.33;4.33;;;;;18.89;84.49;100566.50;5016463;28;45591;-77
2022/09/08 06:02:52;;;;;;;;;4.00;4.00;;;;;18.95;84.19;100558.56;5016634;28;46204;-77
2022/09/08 06:05:19;;;;;;;;;5.33;5.33;;;;;18.96;84.51;100554.81;5016719;28;45407;-77
2022/09/08 06:07:44;;;;;;;;;6.00;4.33;;;;;18.90;84.48;100565.47;5017297;28;45347;-77
2022/09/08 06:10:10;;;;;;;;;4.67;4.67;;;;;18.94;83.86;100565.81;5026109;28;46013;-77
2022/09/08 06:12:35;;;;;;;;;5.00;4.00;;;;;18.93;84.25;100567.72;5033795;28;48518;-77
2022/09/08 06:15:00;;;;;;;;;8.33;7.00;;;;;18.93;84.45;100559.63;5028390;28;45404;-78
2022/09/08 06:17:26;;;;;;;;;5.33;5.00;;;;;18.99;84.33;100562.41;5030645;28;45341;-78
2022/09/08 06:19:51;;;;;;;;;4.00;4.00;;;;;19.07;84.52;100572.03;5032343;28;45809;-77
2022/09/08 06:22:16;;;;;;;;;7.33;4.00;;;;;19.13;84.79;100580.00;5016700;28;45489;-77
2022/09/08 06:24:42;;;;;;;;;5.33;5.00;;;;;19.13;84.76;100577.31;5016673;28;45311;-77
2022/09/08 06:27:21;;;;;;;;;6.00;6.00;;;;;19.12;84.58;100574.84;5016804;28;45236;-77
2022/09/08 06:29:49;;;;;;;;;6.00;6.00;;;;;19.22;84.39;100587.72;5016684;28;45340;-76
2022/09/08 06:32:34;;;;;;;;;4.33;4.33;;;;;19.23;84.26;100587.50;5016096;28;45274;-77
2022/09/08 06:35:07;;;;;;;;;8.00;5.67;;;;;19.34;84.05;100601.19;5016664;28;45288;-78
2022/09/08 06:37:42;;;;;;;;;7.67;7.67;;;;;19.36;84.32;100597.19;5034314;28;45406;-78
2022/09/08 06:40:22;;;;;;;;;6.33;6.33;;;;;19.40;84.25;100603.75;5024145;28;45326;-77
2022/09/08 06:42:49;;;;;;;;;6.00;6.00;;;;;19.42;83.99;100607.03;5016729;28;45318;-77
2022/09/08 06:45:49;;;;;;;;;5.00;5.00;;;;;19.45;83.91;100589.56;5027418;28;45395;-76
2022/09/08 06:48:14;;;;;;;;;7.00;6.67;;;;;19.46;83.94;100599.31;5014217;28;45377;-75
2022/09/08 06:50:51;;;;;;;;;7.00;7.00;;;;;19.41;84.04;100583.84;5023799;28;45321;-75
2022/09/08 06:53:22;;;;;;;;;6.00;6.00;;;;;19.40;83.87;100587.56;5033189;28;47088;-75
2022/09/08 06:55:54;;;;;;;;;8.33;8.33;;;;;19.33;83.89;100575.31;5016300;28;45391;-76
2022/09/08 06:58:33;;;;;;;;;8.00;5.00;;;;;19.28;83.61;100574.13;5016136;28;45312;-76
2022/09/08 07:01:04;;;;;;;;;4.00;4.00;;;;;19.35;84.09;100573.19;5023968;28;47263;-76
2022/09/08 07:03:37;;;;;;;;;5.33;5.00;;;;;19.35;84.20;100571.31;5020033;28;45409;-76
2022/09/08 07:06:10;;;;;;;;;8.00;7.33;;;;;19.38;84.57;100576.22;5023592;28;45833;-75
2022/09/08 07:09:01;;;;;;;;;7.00;6.00;;;;;19.43;84.54;100578.22;5020488;28;45313;-75
2022/09/08 07:12:04;;;;;;;;;8.00;8.00;;;;;19.44;84.38;100582.53;5018784;28;45513;-74
2022/09/08 07:14:43;;;;;;;;;6.33;6.33;;;;;19.45;84.65;100588.75;5019075;28;46608;-74
2022/09/08 07:17:09;;;;;;;;;6.33;5.67;;;;;19.51;84.76;100593.16;5027614;28;45430;-76
2022/09/08 07:19:46;;;;;;;;;6.67;6.33;;;;;19.57;84.84;100588.72;5032373;28;45372;-74
2022/09/08 07:22:31;;;;;;;;;6.67;6.00;;;;;19.64;84.66;100576.72;5027616;28;45483;-75
2022/09/08 07:25:27;;;;;;;;;6.00;6.00;;;;;19.68;84.74;100569.00;5019081;28;46663;-75
2022/09/08 07:28:04;;;;;;;;;7.33;7.00;;;;;19.65;84.02;100569.47;5019134;28;45338;-75
2022/09/08 07:30:30;;;;;;;;;11.00;8.00;;;;;19.72;84.27;100577.44;5035115;28;45378;-74
2022/09/08 07:33:13;;;;;;;;;8.00;6.00;;;;;19.71;83.78;100575.78;5028803;28;45369;-74
2022/09/08 07:35:47;;;;;;;;;9.00;8.00;;;;;19.81;83.60;100595.69;5035138;28;48276;-71
2022/09/08 07:38:26;;;;;;;;;8.67;7.67;;;;;19.96;83.46;100580.03;5033910;28;46232;-72
2022/09/08 07:40:54;;;;;;;;;7.33;7.00;;;;;19.97;83.08;100573.56;5018504;28;45444;-72
2022/09/08 07:43:22;;;;;;;;;9.67;8.33;;;;;20.10;83.72;100570.59;5028126;28;46297;-70
2022/09/08 07:45:56;;;;;;;;;9.33;9.33;;;;;20.24;83.22;100576.53;5020712;28;45632;-71
2022/09/08 07:48:21;;;;;;;;;8.33;8.00;;;;;20.37;82.71;100586.19;5018389;28;45288;-72
2022/09/08 07:50:56;;;;;;;;;7.33;7.33;;;;;20.47;82.80;100582.03;5030681;28;45287;-72
2022/09/08 07:53:40;;;;;;;;;7.67;7.00;;;;;20.48;81.85;100576.38;5018505;28;45424;-72
2022/09/08 07:56:14;;;;;;;;;8.00;7.67;;;;;20.50;81.70;100578.84;5018498;28;46752;-72
2022/09/08 07:58:46;;;;;;;;;9.67;7.00;;;;;20.53;81.80;100576.44;5018111;28;45350;-73
2022/09/08 08:01:32;;;;;;;;;6.67;5.00;;;;;20.49;81.44;100580.72;5018620;28;45510;-72
2022/09/08 08:04:06;;;;;;;;;6.00;6.00;;;;;20.50;81.84;100589.63;5021128;28;45492;-73
2022/09/08 08:06:45;;;;;;;;;5.67;5.67;;;;;20.41;81.67;100581.13;5030515;28;48452;-72
2022/09/08 08:09:24;;;;;;;;;8.00;6.33;;;;;20.44;81.48;100577.91;5031933;28;45448;-72
2022/09/08 08:12:08;;;;;;;;;7.00;5.67;;;;;20.54;81.82;100583.50;5013996;28;45485;-72
2022/09/08 08:14:44;;;;;;;;;7.00;7.00;;;;;20.52;80.95;100576.69;5018868;28;46441;-72
2022/09/08 08:17:13;;;;;;;;;7.00;5.67;;;;;20.44;80.45;100575.22;5019161;28;46436;-74
2022/09/08 08:20:04;;;;;;;;;5.67;4.00;;;;;20.39;80.68;100569.75;5034966;28;46088;-73
2022/09/08 08:22:36;;;;;;;;;7.00;6.00;;;;;20.35;80.62;100569.41;5024477;28;45372;-73
2022/09/08 08:25:10;;;;;;;;;5.00;5.00;;;;;20.31;80.76;100582.59;5018302;28;45600;-74
2022/09/08 08:28:17;;;;;;;;;6.33;5.67;;;;;20.33;80.59;100576.94;5029085;28;46339;-75
2022/09/08 08:31:01;;;;;;;;;6.67;6.67;;;;;20.29;80.58;100589.25;5037075;28;45349;-75
2022/09/08 08:33:38;;;;;;;;;5.33;4.33;;;;;20.17;80.79;100573.13;5039334;28;45284;-74
2022/09/08 08:36:06;;;;;;;;;6.67;6.67;;;;;20.26;80.83;100585.19;5038282;28;45320;-74
2022/09/08 08:38:38;;;;;;;;;9.67;7.33;;;;;20.23;80.81;100576.78;5024714;28;46198;-75
2022/09/08 08:41:12;;;;;;;;;8.00;7.00;;;;;20.32;80.54;100588.78;5024521;28;45404;-74
2022/09/08 08:43:49;;;;;;;;;9.00;8.00;;;;;20.31;80.47;100590.69;5026478;28;45282;-73
2022/09/08 08:46:29;;;;;;;;;8.00;8.00;;;;;20.34;80.40;100591.22;5017577;28;45302;-74
2022/09/08 08:49:51;;;;;;;;;13.33;11.00;;;;;20.39;80.16;100583.25;5017240;28;46401;-73
2022/09/08 08:52:31;;;;;;;;;10.00;10.00;;;;;20.46;80.74;100589.28;5032564;28;45367;-74
2022/09/08 08:55:11;;;;;;;;;11.00;11.00;;;;;20.49;80.75;100583.41;5030534;28;45283;-74
2022/09/08 08:57:58;;;;;;;;;12.00;10.67;;;;;20.69;81.13;100596.41;5017835;28;45538;-74
2022/09/08 09:00:36;;;;;;;;;9.00;9.00;;;;;20.75;80.85;100600.03;5017501;28;46541;-74
2022/09/08 09:03:08;;;;;;;;;13.00;11.33;;;;;20.78;80.37;100596.00;5017423;28;45327;-74
2022/09/08 09:05:49;;;;;;;;;10.33;9.33;;;;;20.87;79.96;100605.34;5022521;28;45502;-73
2022/09/08 09:08:43;;;;;;;;;9.33;9.33;;;;;21.02;79.81;100603.94;5030437;28;46261;-73
2022/09/08 09:11:41;;;;;;;;;5.33;5.00;;;;;21.12;79.79;100600.56;5023863;27;45408;-74
2022/09/08 09:14:38;;;;;;;;;10.33;7.00;;;;;21.12;78.03;100595.16;5020968;28;45475;-74
2022/09/08 09:17:19;;;;;;;;;7.33;5.67;;;;;21.16;77.03;100604.44;5028281;27;45357;-73
2022/09/08 09:19:50;;;;;;;;;5.67;5.67;;;;;21.22;77.15;100602.59;5017249;28;45703;-74
2022/09/08 09:22:21;;;;;;;;;5.00;3.67;;;;;21.12;76.71;100596.00;5017957;28;45286;-74
2022/09/08 09:25:05;;;;;;;;;3.00;3.00;;;;;21.13;75.83;100597.63;5017472;28;45468;-74
2022/09/08 09:27:58;;;;;;;;;6.00;6.00;;;;;21.10;75.99;100592.69;5017739;28;45308;-74
2022/09/08 09:30:29;;;;;;;;;5.67;5.67;;;;;21.12;74.83;100590.59;5017360;28;45410;-74
2022/09/08 09:33:24;;;;;;;;;5.00;5.00;;;;;21.14;75.31;100604.66;5023439;28;47707;-73
2022/09/08 09:36:06;;;;;;;;;6.67;5.00;;;;;21.20;76.01;100594.75;5015606;28;45366;-74
2022/09/08 09:38:57;;;;;;;;;5.00;5.00;;;;;21.35;76.63;100601.41;5017178;28;45371;-74
2022/09/08 09:41:38;;;;;;;;;6.00;4.33;;;;;21.42;76.53;100596.63;5032802;28;45573;-73
2022/09/08 09:44:17;;;;;;;;;6.00;6.00;;;;;21.46;76.23;100594.25;5016706;28;46123;-72
2022/09/08 09:47:07;;;;;;;;;5.00;5.00;;;;;21.45;76.01;100596.13;5023341;28;45427;-74
2022/09/08 09:49:59;;;;;;;;;4.00;3.00;;;;;21.59;76.36;100590.34;5021974;28;45484;-74
2022/09/08 09:52:49;;;;;;;;;6.00;6.00;;;;;21.67;76.06;100579.09;5017273;28;45313;-74
2022/09/08 09:55:26;;;;;;;;;6.00;6.00;;;;;21.77;76.13;100590.06;5016796;28;45551;-73
2022/09/08 09:58:10;;;;;;;;;6.33;5.33;;;;;21.82;76.11;100584.69;5026955;28;45291;-73
2022/09/08 10:01:14;;;;;;;;;5.33;5.00;;;;;21.80;74.69;100578.75;5057090;27;45465;-73
2022/09/08 10:04:04;;;;;;;;;5.00;5.00;;;;;21.91;74.92;100584.25;5056680;27;45222;-73
2022/09/08 10:06:59;;;;;;;;;4.00;4.00;;;;;21.92;74.59;100572.38;5022077;28;46371;-74
2022/09/08 10:09:49;;;;;;;;;4.00;4.00;;;;;22.10;74.45;100589.31;5020755;28;45346;-75
2022/09/08 10:12:20;;;;;;;;;4.67;4.00;;;;;22.30;74.68;100589.50;5025330;28;45353;-75
2022/09/08 10:15:03;;;;;;;;;3.33;3.00;;;;;22.50;74.26;100587.22;5035148;28;47262;-73
2022/09/08 10:17:51;;;;;;;;;9.00;6.67;;;;;22.75;74.48;100577.69;5043099;27;47439;-75
2022/09/08 10:20:34;;;;;;;;;4.00;4.00;;;;;23.04;73.63;100572.72;5033647;28;45482;-75
2022/09/08 10:23:02;;;;;;;;;5.00;4.33;;;;;23.38;72.62;100574.28;5032955;28;45307;-74
2022/09/08 10:25:46;;;;;;;;;4.00;4.00;;;;;23.65;72.03;100573.28;5020714;28;45385;-74
2022/09/08 10:28:20;;;;;;;;;2.00;2.00;;;;;23.92;71.68;100555.16;5016665;28;45814;-74
2022/09/08 10:31:00;;;;;;;;;4.67;3.67;;;;;24.12;71.41;100557.06;5016410;28;45322;-74
2022/09/08 10:33:44;;;;;;;;;4.67;4.67;;;;;24.19;71.01;100562.25;5016638;28;45240;-73
2022/09/08 10:36:12;;;;;;;;;5.67;5.67;;;;;24.08;71.26;100548.66;5021110;28;46706;-74
2022/09/08 10:38:44;;;;;;;;;3.67;3.67;;;;;23.96;71.14;100564.38;5051574;28;47498;-74
2022/09/08 10:41:33;;;;;;;;;3.67;3.33;;;;;23.66;71.55;100557.81;5017397;28;45231;-74
2022/09/08 10:44:26;;;;;;;;;4.00;3.33;;;;;23.52;72.48;100557.50;5016181;28;45306;-73
2022/09/08 10:47:19;;;;;;;;;5.33;4.33;;;;;23.42;72.32;100550.13;5016234;28;45806;-73
2022/09/08 10:50:16;;;;;;;;;4.00;4.00;;;;;23.27;72.21;100540.03;5016428;28;46575;-75
2022/09/08 10:53:03;;;;;;;;;3.00;2.00;;;;;23.21;72.10;100547.31;5025803;28;45560;-74
2022/09/08 10:55:54;;;;;;;;;2.67;2.67;;;;;23.23;73.09;100550.59;5016406;28;45317;-74
2022/09/08 10:58:50;;;;;;;;;4.00;2.67;;;;;23.18;72.00;100539.72;5015946;28;45587;-73
2022/09/08 11:01:54;;;;;;;;;4.00;4.00;;;;;23.17;72.12;100543.50;5016161;28;45472;-73
2022/09/08 11:04:57;;;;;;;;;2.00;2.00;;;;;23.19;72.21;100535.91;5022850;28;45343;-73
2022/09/08 11:07:40;;;;;;;;;3.00;3.00;;;;;23.29;72.98;100541.38;5034969;28;45475;-73
2022/09/08 11:10:15;;;;;;;;;4.00;3.00;;;;;23.45;73.22;100541.47;5016263;28;45665;-73
2022/09/08 11:13:18;;;;;;;;;3.33;3.00;;;;;23.63;71.97;100539.34;5016122;28;46189;-74
2022/09/08 11:16:07;;;;;;;;;4.00;4.00;;;;;23.68;69.04;100528.53;5029131;28;45433;-73
2022/09/08 11:18:38;;;;;;;;;3.00;2.00;;;;;23.65;66.51;100526.34;5020870;28;45327;-73
2022/09/08 11:21:08;;;;;;;;;2.00;1.00;;;;;23.63;68.27;100532.03;5017923;27;45625;-74
2022/09/08 11:23:43;;;;;;;;;2.00;2.00;;;;;23.73;67.61;100531.22;5023332;28;45509;-73
2022/09/08 11:26:42;;;;;;;;;4.33;3.00;;;;;23.78;67.24;100520.41;5022715;28;45569;-74
2022/09/08 11:29:16;;;;;;;;;1.33;1.33;;;;;23.82;67.17;100535.06;5016747;28;45236;-75
2022/09/08 11:32:08;;;;;;;;;1.67;1.67;;;;;23.77;67.03;100543.19;5015924;28;45379;-74
2022/09/08 11:35:26;;;;;;;;;2.33;2.33;;;;;23.77;66.76;100534.22;5027749;28;48117;-74
2022/09/08 11:37:54;;;;;;;;;4.00;4.00;;;;;23.83;66.76;100538.59;5032772;28;45548;-74
2022/09/08 11:40:31;;;;;;;;;6.00;4.00;;;;;23.93;66.62;100518.78;5014763;28;45681;-74
2022/09/08 11:43:07;;;;;;;;;1.00;1.00;;;;;23.97;65.42;100514.44;5024221;28;45840;-74
2022/09/08 11:46:09;;;;;;;;;0.00;0.00;;;;;24.04;63.82;100517.72;5015633;28;45609;-73
2022/09/08 11:49:06;;;;;;;;;3.00;3.00;;;;;23.87;63.56;100504.41;5032186;28;45321;-75
2022/09/08 11:51:51;;;;;;;;;1.00;1.00;;;;;23.79;62.76;100496.81;5035156;28;45395;-74
2022/09/08 11:54:26;;;;;;;;;3.33;3.00;;;;;23.79;64.12;100503.03;5014270;28;45421;-74
2022/09/08 11:57:00;;;;;;;;;3.33;3.33;;;;;23.76;64.79;100519.06;5030448;28;47241;-74
2022/09/08 12:00:05;;;;;;;;;2.00;1.33;;;;;23.57;65.19;100509.53;5018841;28;45479;-74